Time;durP1;ratioP1;P1;durP2;ratioP2;P2;SDS_P1;SDS_P2;PMS_P1;PMS_P2;Temp;Humidity;BMP_temperature;BMP_pressure;BME280_temperature;BME280_humidity;BME280_pressure;Samples;Min_cycle;Max_cycle;Signal;HPM_P1;HPM_P2
2023/12/28 00:01:39;;;;;;;3.67;2.00;;;;;;;;;;5073150;28;20482;-57
2023/12/28 00:04:06;;;;;;;2.33;1.58;;;;;;;;;;5073170;28;20053;-57
2023/12/28 00:06:33;;;;;;;3.15;2.03;;;;;;;;;;5073649;28;20052;-56
2023/12/28 00:09:00;;;;;;;4.63;2.05;;;;;;;;;;5073774;28;20053;-57
2023/12/28 00:11:28;;;;;;;5.63;2.00;;;;;;;;;;5073664;28;20048;-57
2023/12/28 00:13:55;;;;;;;4.47;1.95;;;;;;;;;;5073326;28;20071;-57
2023/12/28 00:16:22;;;;;;;4.10;2.10;;;;;;;;;;5073457;28;20052;-57
2023/12/28 00:18:49;;;;;;;5.28;2.13;;;;;;;;;;5073076;28;20045;-57
2023/12/28 00:21:16;;;;;;;3.17;1.90;;;;;;;;;;5073695;28;20056;-57
2023/12/28 00:23:42;;;;;;;5.30;2.30;;;;;;;;;;5073700;28;20063;-57
2023/12/28 00:26:09;;;;;;;4.30;2.10;;;;;;;;;;5073168;28;20060;-57
2023/12/28 00:28:37;;;;;;;4.30;2.15;;;;;;;;;;5073554;28;20052;-57
2023/12/28 00:31:04;;;;;;;5.70;2.40;;;;;;;;;;5073421;28;20060;-57
2023/12/28 00:33:31;;;;;;;3.75;2.47;;;;;;;;;;5073632;28;20075;-56
2023/12/28 00:35:58;;;;;;;4.20;2.20;;;;;;;;;;5073262;28;20421;-55
2023/12/28 00:38:25;;;;;;;3.40;2.30;;;;;;;;;;5073325;28;20055;-54
2023/12/28 00:40:52;;;;;;;2.83;2.13;;;;;;;;;;5073266;28;20057;-56
2023/12/28 00:43:19;;;;;;;4.47;2.33;;;;;;;;;;5073344;28;20056;-57
2023/12/28 00:45:47;;;;;;;3.88;2.38;;;;;;;;;;5073126;28;20474;-57
2023/12/28 00:48:14;;;;;;;3.97;2.20;;;;;;;;;;5073208;28;20398;-56
2023/12/28 00:50:40;;;;;;;3.10;2.10;;;;;;;;;;5072739;28;20056;-57
2023/12/28 00:53:07;;;;;;;3.83;2.28;;;;;;;;;;5073050;28;20052;-56
2023/12/28 00:55:34;;;;;;;4.93;2.15;;;;;;;;;;5073015;28;20048;-57
2023/12/28 00:58:01;;;;;;;4.45;2.30;;;;;;;;;;5072453;28;20490;-56
2023/12/28 01:00:28;;;;;;;4.25;2.00;;;;;;;;;;5072895;28;20051;-57
2023/12/28 01:02:56;;;;;;;4.00;2.47;;;;;;;;;;5072889;28;20063;-57
2023/12/28 01:05:25;;;;;;;3.63;2.50;;;;;;;;;;5072377;28;20394;-55
2023/12/28 01:07:52;;;;;;;4.95;2.60;;;;;;;;;;5072639;28;20051;-57
2023/12/28 01:10:19;;;;;;;3.72;2.22;;;;;;;;;;5072718;28;20052;-58
2023/12/28 01:12:46;;;;;;;3.28;2.33;;;;;;;;;;5072493;28;20119;-57
2023/12/28 01:15:13;;;;;;;4.30;2.10;;;;;;;;;;5071878;28;20049;-58
2023/12/28 01:17:40;;;;;;;3.05;2.13;;;;;;;;;;5072523;28;20063;-58
2023/12/28 01:20:09;;;;;;;3.40;2.00;;;;;;;;;;5072654;28;20048;-58
2023/12/28 01:22:36;;;;;;;4.28;2.20;;;;;;;;;;5072436;28;20057;-58
2023/12/28 01:25:03;;;;;;;4.35;2.78;;;;;;;;;;5072629;28;20514;-58
2023/12/28 01:27:29;;;;;;;3.30;2.17;;;;;;;;;;5072666;28;20052;-58
2023/12/28 01:29:56;;;;;;;3.45;2.25;;;;;;;;;;5072207;28;20048;-58
2023/12/28 01:32:23;;;;;;;3.55;2.15;;;;;;;;;;5072488;28;20052;-58
2023/12/28 01:34:50;;;;;;;4.47;2.53;;;;;;;;;;5072503;28;20059;-58
2023/12/28 01:37:18;;;;;;;4.65;2.20;;;;;;;;;;5072086;28;20414;-58
2023/12/28 01:39:45;;;;;;;3.38;2.35;;;;;;;;;;5072425;28;20060;-58
2023/12/28 01:42:12;;;;;;;3.42;2.35;;;;;;;;;;5072478;28;20059;-59
2023/12/28 01:44:38;;;;;;;4.40;2.55;;;;;;;;;;5072212;28;20052;-58
2023/12/28 01:47:06;;;;;;;4.75;2.38;;;;;;;;;;5072288;28;20059;-58
2023/12/28 01:49:36;;;;;;;4.05;2.30;;;;;;;;;;5071979;28;20052;-57
2023/12/28 01:52:03;;;;;;;2.95;2.22;;;;;;;;;;5072062;28;20053;-58
2023/12/28 01:54:32;;;;;;;3.53;1.98;;;;;;;;;;5072571;28;20505;-58
2023/12/28 01:57:00;;;;;;;4.72;2.50;;;;;;;;;;5072235;28;20048;-59
2023/12/28 01:59:26;;;;;;;3.30;2.03;;;;;;;;;;5072186;28;20402;-58
2023/12/28 02:01:53;;;;;;;4.75;2.15;;;;;;;;;;5071961;28;20078;-58
2023/12/28 02:04:26;;;;;;;3.95;2.35;;;;;;;;;;5071714;28;20052;-58
2023/12/28 02:06:53;;;;;;;3.75;1.90;;;;;;;;;;5072011;28;20053;-58
2023/12/28 02:09:20;;;;;;;3.20;1.80;;;;;;;;;;5071917;28;20045;-59
2023/12/28 02:11:48;;;;;;;3.55;2.00;;;;;;;;;;5072145;28;20064;-59
2023/12/28 02:14:15;;;;;;;2.70;1.95;;;;;;;;;;5072238;28;20064;-59
2023/12/28 02:16:45;;;;;;;3.13;2.15;;;;;;;;;;5071789;28;20056;-58
2023/12/28 02:19:12;;;;;;;;;;;;;;;;;;5072530;28;20508;-59
2023/12/28 02:21:39;;;;;;;4.05;2.13;;;;;;;;;;5071696;28;19927;-58
2023/12/28 02:24:06;;;;;;;3.80;2.20;;;;;;;;;;5072030;28;20063;-59
2023/12/28 02:26:34;;;;;;;3.17;2.10;;;;;;;;;;5075383;28;20075;-59
2023/12/28 02:29:00;;;;;;;3.20;2.00;;;;;;;;;;5075643;28;20048;-58
2023/12/28 02:31:30;;;;;;;3.42;2.03;;;;;;;;;;5075482;28;20165;-58
2023/12/28 02:33:59;;;;;;;4.05;2.17;;;;;;;;;;5075624;28;20500;-59
2023/12/28 02:36:26;;;;;;;;;;;;;;;;;;5075846;28;20528;-58
2023/12/28 02:38:55;;;;;;;4.32;2.08;;;;;;;;;;5075445;28;20288;-58
2023/12/28 02:41:22;;;;;;;3.58;2.10;;;;;;;;;;5075186;28;20052;-59
2023/12/28 02:43:50;;;;;;;3.20;2.17;;;;;;;;;;5073141;28;20048;-58
2023/12/28 02:46:17;;;;;;;3.10;2.20;;;;;;;;;;5075527;28;20504;-58
2023/12/28 02:48:44;;;;;;;3.45;1.90;;;;;;;;;;5075237;28;20405;-58
2023/12/28 02:51:11;;;;;;;2.38;1.80;;;;;;;;;;5075564;28;20052;-58
2023/12/28 02:53:38;;;;;;;3.92;2.10;;;;;;;;;;5075619;28;20063;-59
2023/12/28 02:56:05;;;;;;;2.67;2.03;;;;;;;;;;5075473;28;20406;-59
2023/12/28 02:58:35;;;;;;;4.78;2.05;;;;;;;;;;5075310;28;20059;-59
2023/12/28 03:01:03;;;;;;;2.92;1.77;;;;;;;;;;5075214;28;20056;-59
2023/12/28 03:03:30;;;;;;;3.25;1.85;;;;;;;;;;5075077;28;20474;-58
2023/12/28 03:05:57;;;;;;;3.03;1.60;;;;;;;;;;5074866;28;20056;-58
2023/12/28 03:08:23;;;;;;;4.85;1.80;;;;;;;;;;5075367;28;20389;-58
2023/12/28 03:10:50;;;;;;;3.72;2.03;;;;;;;;;;5074880;28;20433;-58
2023/12/28 03:13:17;;;;;;;2.70;1.65;;;;;;;;;;5075262;28;20405;-59
2023/12/28 03:15:44;;;;;;;4.30;2.10;;;;;;;;;;5074753;28;20478;-58
2023/12/28 03:18:12;;;;;;;2.83;1.73;;;;;;;;;;5075131;28;20049;-59
2023/12/28 03:20:39;;;;;;;3.63;2.35;;;;;;;;;;5074432;28;20056;-59
2023/12/28 03:23:05;;;;;;;3.97;1.88;;;;;;;;;;5074887;28;20398;-59
2023/12/28 03:25:32;;;;;;;2.90;1.75;;;;;;;;;;5074951;28;20595;-58
2023/12/28 03:27:59;;;;;;;3.88;1.80;;;;;;;;;;5074571;28;20493;-58
2023/12/28 03:30:26;;;;;;;2.78;1.85;;;;;;;;;;5074834;28;20071;-58
2023/12/28 03:32:52;;;;;;;3.70;1.90;;;;;;;;;;5074840;28;20486;-58
2023/12/28 03:35:20;;;;;;;2.60;1.67;;;;;;;;;;5074387;28;20127;-58
2023/12/28 03:37:47;;;;;;;2.83;1.67;;;;;;;;;;5073636;28;20063;-58
2023/12/28 03:40:14;;;;;;;4.18;1.60;;;;;;;;;;5074447;28;20056;-58
2023/12/28 03:42:42;;;;;;;4.20;1.75;;;;;;;;;;5074571;28;20482;-58
2023/12/28 03:45:09;;;;;;;3.70;1.60;;;;;;;;;;5074393;28;20056;-58
2023/12/28 03:47:36;;;;;;;2.65;1.58;;;;;;;;;;5074252;28;20402;-59
2023/12/28 03:50:03;;;;;;;2.08;1.40;;;;;;;;;;5073942;28;20151;-59
2023/12/28 03:52:31;;;;;;;2.25;1.50;;;;;;;;;;5074118;28;20057;-59
2023/12/28 03:54:57;;;;;;;2.80;1.60;;;;;;;;;;5073780;28;20056;-59
2023/12/28 03:57:24;;;;;;;2.85;1.52;;;;;;;;;;5073905;28;20059;-59
2023/12/28 03:59:51;;;;;;;3.00;1.58;;;;;;;;;;5073641;28;20049;-58
2023/12/28 04:02:18;;;;;;;3.97;1.30;;;;;;;;;;5074054;28;20500;-58
2023/12/28 04:04:45;;;;;;;2.63;1.65;;;;;;;;;;5073735;28;20067;-59
2023/12/28 04:07:11;;;;;;;2.45;1.60;;;;;;;;;;5073407;28;20071;-59
2023/12/28 04:09:40;;;;;;;3.60;1.70;;;;;;;;;;5073833;28;20048;-59
2023/12/28 04:12:07;;;;;;;2.88;1.50;;;;;;;;;;5073653;28;20048;-59
2023/12/28 04:14:34;;;;;;;5.25;1.50;;;;;;;;;;5073796;28;20052;-58
2023/12/28 04:17:01;;;;;;;2.97;1.60;;;;;;;;;;5073683;28;20057;-59
2023/12/28 04:19:28;;;;;;;2.15;1.40;;;;;;;;;;5073370;28;20413;-58
2023/12/28 04:21:55;;;;;;;1.80;1.25;;;;;;;;;;5073331;28;20055;-58
2023/12/28 04:24:22;;;;;;;2.45;1.38;;;;;;;;;;5073337;28;20056;-58
2023/12/28 04:26:50;;;;;;;2.88;1.40;;;;;;;;;;5073432;28;20056;-59
2023/12/28 04:29:17;;;;;;;2.47;1.23;;;;;;;;;;5073555;28;20437;-59
2023/12/28 04:31:44;;;;;;;2.42;1.23;;;;;;;;;;5073056;28;20060;-58
2023/12/28 04:34:11;;;;;;;2.25;1.45;;;;;;;;;;5073466;28;20052;-59
2023/12/28 04:36:40;;;;;;;2.88;1.50;;;;;;;;;;5073149;28;20048;-58
2023/12/28 04:39:07;;;;;;;1.95;1.25;;;;;;;;;;5072939;28;20053;-59
2023/12/28 04:41:34;;;;;;;2.35;1.45;;;;;;;;;;5073154;28;20052;-58
2023/12/28 04:44:02;;;;;;;2.75;1.58;;;;;;;;;;5073118;28;20052;-59
2023/12/28 04:46:29;;;;;;;3.15;1.70;;;;;;;;;;5073012;28;20052;-59
2023/12/28 04:48:56;;;;;;;2.67;1.60;;;;;;;;;;5072803;28;20044;-58
2023/12/28 04:51:24;;;;;;;2.53;1.60;;;;;;;;;;5072920;28;20409;-59
2023/12/28 04:53:51;;;;;;;2.53;1.60;;;;;;;;;;5072673;28;20060;-58
2023/12/28 04:56:19;;;;;;;2.92;1.60;;;;;;;;;;5072592;28;20056;-58
2023/12/28 04:58:46;;;;;;;3.53;1.50;;;;;;;;;;5072820;28;20057;-59
2023/12/28 05:01:15;;;;;;;3.47;1.60;;;;;;;;;;5072660;28;20131;-59
2023/12/28 05:03:41;;;;;;;2.45;1.48;;;;;;;;;;5072655;28;20531;-58
2023/12/28 05:06:08;;;;;;;2.83;1.60;;;;;;;;;;5072728;28;20413;-58
2023/12/28 05:08:35;;;;;;;4.07;1.90;;;;;;;;;;5072855;28;20378;-58
2023/12/28 05:11:02;;;;;;;2.17;1.33;;;;;;;;;;5072608;28;20048;-57
2023/12/28 05:13:29;;;;;;;2.40;1.38;;;;;;;;;;5072795;28;20057;-58
2023/12/28 05:15:55;;;;;;;2.17;1.40;;;;;;;;;;5072271;28;20079;-58
2023/12/28 05:18:24;;;;;;;2.67;1.40;;;;;;;;;;5072166;28;20052;-58
2023/12/28 05:20:50;;;;;;;2.75;1.48;;;;;;;;;;5071929;28;20417;-60
2023/12/28 05:23:17;;;;;;;3.17;1.70;;;;;;;;;;5072672;28;20482;-59
2023/12/28 05:25:46;;;;;;;3.70;1.58;;;;;;;;;;5072457;28;20064;-59
2023/12/28 05:28:12;;;;;;;2.60;1.50;;;;;;;;;;5072679;28;20061;-58
2023/12/28 05:30:39;;;;;;;2.88;1.45;;;;;;;;;;5072196;28;20049;-58
2023/12/28 05:33:06;;;;;;;3.28;1.75;;;;;;;;;;5072494;28;20059;-58
2023/12/28 05:35:34;;;;;;;2.10;1.50;;;;;;;;;;5072074;28;20052;-59
2023/12/28 05:38:01;;;;;;;3.08;1.58;;;;;;;;;;5072370;28;20052;-59
2023/12/28 05:40:28;;;;;;;2.70;1.50;;;;;;;;;;5071996;28;20048;-59
2023/12/28 05:42:54;;;;;;;3.08;1.60;;;;;;;;;;5072349;28;20071;-59
2023/12/28 05:45:21;;;;;;;5.75;1.65;;;;;;;;;;5072252;28;20382;-58
2023/12/28 05:47:48;;;;;;;2.65;1.50;;;;;;;;;;5072194;28;20060;-58
2023/12/28 05:50:15;;;;;;;4.45;1.73;;;;;;;;;;5072251;28;20052;-59
2023/12/28 05:52:43;;;;;;;3.47;1.77;;;;;;;;;;5072255;28;20053;-58
2023/12/28 05:55:10;;;;;;;4.53;1.70;;;;;;;;;;5071944;28;20063;-58
2023/12/28 05:57:36;;;;;;;4.78;1.77;;;;;;;;;;5071738;28;20059;-58
2023/12/28 06:00:06;;;;;;;4.20;1.90;;;;;;;;;;5073138;28;20056;-59
2023/12/28 06:02:32;;;;;;;2.70;1.80;;;;;;;;;;5076087;28;20052;-59
2023/12/28 06:04:59;;;;;;;2.55;1.65;;;;;;;;;;5075583;28;20060;-58
2023/12/28 06:07:26;;;;;;;4.60;1.80;;;;;;;;;;5075860;28;20063;-58
2023/12/28 06:09:54;;;;;;;3.58;1.60;;;;;;;;;;5075961;28;20051;-59
2023/12/28 06:12:21;;;;;;;4.40;1.38;;;;;;;;;;5075569;28;20408;-58
2023/12/28 06:14:48;;;;;;;3.40;1.48;;;;;;;;;;5075952;28;20468;-58
2023/12/28 06:17:15;;;;;;;2.95;1.88;;;;;;;;;;5075750;28;20490;-58
2023/12/28 06:19:42;;;;;;;3.03;1.40;;;;;;;;;;5075756;28;20052;-58
2023/12/28 06:22:08;;;;;;;2.97;1.80;;;;;;;;;;5075716;28;20053;-59
2023/12/28 06:24:38;;;;;;;4.32;1.52;;;;;;;;;;5075472;28;20048;-59
2023/12/28 06:27:06;;;;;;;3.42;1.70;;;;;;;;;;5074980;28;20067;-59
2023/12/28 06:29:33;;;;;;;2.83;1.60;;;;;;;;;;5075155;28;20052;-59
2023/12/28 06:32:00;;;;;;;3.47;1.42;;;;;;;;;;5075488;28;20486;-58
2023/12/28 06:34:27;;;;;;;3.55;1.95;;;;;;;;;;5075173;28;20057;-58
2023/12/28 06:36:53;;;;;;;2.90;1.80;;;;;;;;;;5074613;28;20067;-58
2023/12/28 06:39:20;;;;;;;4.82;1.90;;;;;;;;;;5074989;28;20059;-58
2023/12/28 06:41:48;;;;;;;2.67;1.63;;;;;;;;;;5075222;28;20055;-59
2023/12/28 06:44:16;;;;;;;3.58;2.05;;;;;;;;;;5075054;28;20064;-59
2023/12/28 06:46:42;;;;;;;4.18;1.80;;;;;;;;;;5074708;28;20493;-58
2023/12/28 06:49:09;;;;;;;3.22;1.80;;;;;;;;;;5074967;28;20494;-58
2023/12/28 06:51:36;;;;;;;2.90;1.70;;;;;;;;;;5074875;28;20044;-58
2023/12/28 06:54:03;;;;;;;3.78;2.10;;;;;;;;;;5075351;28;20063;-59
2023/12/28 06:56:30;;;;;;;2.88;1.70;;;;;;;;;;5075002;28;20063;-58
2023/12/28 06:58:57;;;;;;;4.93;2.00;;;;;;;;;;5074853;28;20055;-58
2023/12/28 07:01:25;;;;;;;2.85;1.83;;;;;;;;;;5074740;28;20425;-58
2023/12/28 07:03:52;;;;;;;5.43;1.80;;;;;;;;;;5074552;28;20056;-59
2023/12/28 07:06:19;;;;;;;4.35;1.70;;;;;;;;;;5074892;28;20206;-58
2023/12/28 07:08:46;;;;;;;4.03;2.03;;;;;;;;;;5074902;28;20059;-59
2023/12/28 07:11:12;;;;;;;4.30;1.77;;;;;;;;;;5074813;28;20060;-59
2023/12/28 07:13:39;;;;;;;4.38;1.83;;;;;;;;;;5074778;28;20067;-60
2023/12/28 07:16:07;;;;;;;4.07;1.73;;;;;;;;;;5074541;28;20071;-58
2023/12/28 07:18:35;;;;;;;3.55;1.85;;;;;;;;;;5074336;28;20071;-58
2023/12/28 07:21:02;;;;;;;2.60;1.70;;;;;;;;;;5074220;28;20057;-59
2023/12/28 07:23:29;;;;;;;4.28;1.90;;;;;;;;;;5074576;28;20457;-58
2023/12/28 07:25:56;;;;;;;2.85;1.67;;;;;;;;;;5074376;28;20056;-58
2023/12/28 07:28:23;;;;;;;4.47;1.60;;;;;;;;;;5074429;28;20059;-58
2023/12/28 07:30:50;;;;;;;3.67;1.70;;;;;;;;;;5074499;28;20520;-58
2023/12/28 07:33:16;;;;;;;3.92;1.90;;;;;;;;;;5074459;28;20481;-58
2023/12/28 07:35:45;;;;;;;3.42;2.20;;;;;;;;;;5074311;28;20482;-58
2023/12/28 07:38:11;;;;;;;3.92;2.00;;;;;;;;;;5073680;28;20056;-58
2023/12/28 07:40:38;;;;;;;3.42;1.85;;;;;;;;;;5074413;28;20393;-57
2023/12/28 07:43:05;;;;;;;3.25;1.80;;;;;;;;;;5074375;28;20056;-57
2023/12/28 07:45:32;;;;;;;5.30;1.98;;;;;;;;;;5074261;28;20097;-59
2023/12/28 07:48:00;;;;;;;3.30;1.98;;;;;;;;;;5073962;28;20055;-59
2023/12/28 07:50:26;;;;;;;5.05;2.38;;;;;;;;;;5074187;28;20052;-58
2023/12/28 07:52:54;;;;;;;3.85;1.90;;;;;;;;;;5074057;28;20056;-59
2023/12/28 07:55:21;;;;;;;4.25;1.98;;;;;;;;;;5074383;28;20059;-58
2023/12/28 07:57:48;;;;;;;4.47;2.13;;;;;;;;;;5073964;28;20053;-58
2023/12/28 08:00:15;;;;;;;3.97;1.85;;;;;;;;;;5074026;28;20063;-58
2023/12/28 08:02:43;;;;;;;5.45;1.90;;;;;;;;;;5073838;28;20053;-57
2023/12/28 08:05:10;;;;;;;3.92;1.85;;;;;;;;;;5073783;28;20053;-58
2023/12/28 08:07:37;;;;;;;3.83;2.25;;;;;;;;;;5074059;28;20485;-58
2023/12/28 08:10:05;;;;;;;4.60;1.92;;;;;;;;;;5074003;28;20060;-58
2023/12/28 08:12:32;;;;;;;4.10;2.10;;;;;;;;;;5073581;28;20049;-58
2023/12/28 08:15:00;;;;;;;5.50;2.03;;;;;;;;;;5073744;28;20049;-59
2023/12/28 08:17:26;;;;;;;4.45;1.90;;;;;;;;;;5073714;28;20057;-58
2023/12/28 08:19:53;;;;;;;3.17;1.77;;;;;;;;;;5073631;28;20052;-58
2023/12/28 08:22:20;;;;;;;5.28;1.90;;;;;;;;;;5073094;28;20057;-58
2023/12/28 08:24:47;;;;;;;4.50;1.85;;;;;;;;;;5073628;28;20374;-59
2023/12/28 08:27:15;;;;;;;3.80;1.95;;;;;;;;;;5073579;28;20048;-58
2023/12/28 08:29:42;;;;;;;5.28;1.73;;;;;;;;;;5073367;28;20496;-58
2023/12/28 08:32:10;;;;;;;5.70;1.88;;;;;;;;;;5072994;28;20053;-58
2023/12/28 08:34:37;;;;;;;5.90;2.20;;;;;;;;;;5073325;28;20052;-58
2023/12/28 08:37:04;;;;;;;3.53;1.75;;;;;;;;;;5073042;28;20055;-58
2023/12/28 08:39:31;;;;;;;4.97;2.13;;;;;;;;;;5073016;28;20504;-58
2023/12/28 08:41:57;;;;;;;3.45;1.80;;;;;;;;;;5072935;28;20059;-58
2023/12/28 08:44:26;;;;;;;5.22;2.25;;;;;;;;;;5072909;28;20383;-58
2023/12/28 08:46:52;;;;;;;4.65;2.05;;;;;;;;;;5072504;28;20056;-57
2023/12/28 08:49:22;;;;;;;6.40;2.13;;;;;;;;;;5072888;28;20342;-58
2023/12/28 08:51:49;;;;;;;3.78;1.90;;;;;;;;;;5072874;28;20048;-59
2023/12/28 08:54:16;;;;;;;5.90;2.10;;;;;;;;;;5072728;28;20532;-58
2023/12/28 08:56:43;;;;;;;7.57;2.15;;;;;;;;;;5072713;28;20056;-58
2023/12/28 08:59:10;;;;;;;4.20;2.03;;;;;;;;;;5072582;28;20076;-58
2023/12/28 09:01:38;;;;;;;6.93;2.50;;;;;;;;;;5071938;28;20056;-58
2023/12/28 09:04:05;;;;;;;5.40;2.08;;;;;;;;;;5071176;28;20493;-58
2023/12/28 09:06:31;;;;;;;4.70;2.17;;;;;;;;;;5071777;28;20525;-58
2023/12/28 09:08:58;;;;;;;4.15;1.77;;;;;;;;;;5071778;28;20382;-58
2023/12/28 09:11:26;;;;;;;5.32;2.00;;;;;;;;;;5072541;28;20052;-58
2023/12/28 09:13:53;;;;;;;5.97;1.90;;;;;;;;;;5072400;28;20060;-58
2023/12/28 09:16:20;;;;;;;5.43;2.20;;;;;;;;;;5071943;28;20052;-58
2023/12/28 09:18:48;;;;;;;7.32;2.03;;;;;;;;;;5071896;28;20056;-58
2023/12/28 09:21:15;;;;;;;4.78;2.10;;;;;;;;;;5071784;28;20049;-58
2023/12/28 09:23:42;;;;;;;4.60;1.67;;;;;;;;;;5071674;28;20394;-58
2023/12/28 09:26:08;;;;;;;3.90;1.85;;;;;;;;;;5071140;28;20434;-58
2023/12/28 09:28:35;;;;;;;6.07;1.98;;;;;;;;;;5071714;28;20057;-58
2023/12/28 09:31:04;;;;;;;5.05;2.10;;;;;;;;;;5072320;28;20056;-58
2023/12/28 09:33:31;;;;;;;4.90;2.10;;;;;;;;;;5071905;28;20445;-58
2023/12/28 09:35:59;;;;;;;6.10;1.92;;;;;;;;;;5071363;28;20486;-58
2023/12/28 09:38:27;;;;;;;4.40;1.73;;;;;;;;;;5071819;28;20060;-58
2023/12/28 09:40:55;;;;;;;7.97;1.80;;;;;;;;;;5072601;28;20064;-58
2023/12/28 09:43:23;;;;;;;3.65;1.70;;;;;;;;;;5072216;28;20056;-58
2023/12/28 09:45:49;;;;;;;4.00;2.00;;;;;;;;;;5071978;28;20052;-57
2023/12/28 09:48:17;;;;;;;5.50;2.10;;;;;;;;;;5072314;28;20059;-58
2023/12/28 09:50:44;;;;;;;4.43;1.80;;;;;;;;;;5072062;28;20064;-58
2023/12/28 09:53:12;;;;;;;4.25;2.08;;;;;;;;;;5072322;28;20168;-58
2023/12/28 09:55:39;;;;;;;4.53;1.92;;;;;;;;;;5072373;28;20048;-58
2023/12/28 09:58:06;;;;;;;5.13;2.00;;;;;;;;;;5072098;28;20053;-57
2023/12/28 10:00:34;;;;;;;3.83;1.80;;;;;;;;;;5072256;28;20068;-58
2023/12/28 10:03:00;;;;;;;5.53;1.90;;;;;;;;;;5072077;28;20067;-58
2023/12/28 10:05:27;;;;;;;5.18;1.73;;;;;;;;;;5071572;28;20064;-58
2023/12/28 10:07:56;;;;;;;4.65;2.00;;;;;;;;;;5072083;28;20091;-58
2023/12/28 10:10:24;;;;;;;5.38;2.10;;;;;;;;;;5072227;28;20059;-58
2023/12/28 10:12:51;;;;;;;6.10;1.90;;;;;;;;;;5072330;28;20370;-58
2023/12/28 10:15:18;;;;;;;5.50;2.05;;;;;;;;;;5072199;28;20064;-58
2023/12/28 10:17:46;;;;;;;4.78;1.85;;;;;;;;;;5072050;28;20067;-58
2023/12/28 10:20:13;;;;;;;5.20;1.80;;;;;;;;;;5072193;28;20049;-58
2023/12/28 10:22:40;;;;;;;6.70;2.33;;;;;;;;;;5071584;28;20409;-58
2023/12/28 10:25:07;;;;;;;5.68;2.05;;;;;;;;;;5072232;28;20056;-58
2023/12/28 10:27:38;;;;;;;6.18;1.98;;;;;;;;;;5071738;28;20059;-58
2023/12/28 10:30:05;;;;;;;5.93;1.92;;;;;;;;;;5071912;28;20356;-58
2023/12/28 10:32:32;;;;;;;7.45;2.17;;;;;;;;;;5071718;28;20060;-58
2023/12/28 10:34:59;;;;;;;4.70;1.90;;;;;;;;;;5071992;28;20493;-58
2023/12/28 10:37:27;;;;;;;6.68;1.92;;;;;;;;;;5071638;28;20059;-58
2023/12/28 10:39:55;;;;;;;7.57;1.80;;;;;;;;;;5071942;28;20059;-58
2023/12/28 10:42:29;;;;;;;4.32;1.70;;;;;;;;;;5071381;28;20048;-57
2023/12/28 10:45:02;;;;;;;4.65;1.73;;;;;;;;;;5071917;28;20064;-58
2023/12/28 10:47:31;;;;;;;7.40;2.00;;;;;;;;;;5074896;28;20053;-58
2023/12/28 10:50:00;;;;;;;8.10;2.17;;;;;;;;;;5075373;28;20056;-57
2023/12/28 10:52:28;;;;;;;5.50;1.67;;;;;;;;;;5075346;28;20049;-57
2023/12/28 10:54:58;;;;;;;5.32;1.88;;;;;;;;;;5074973;28;20490;-58
2023/12/28 10:57:29;;;;;;;4.80;2.15;;;;;;;;;;5074843;28;20053;-57
2023/12/28 11:00:01;;;;;;;5.57;2.00;;;;;;;;;;5075114;28;20052;-57
2023/12/28 11:02:29;;;;;;;5.53;2.15;;;;;;;;;;5075061;28;20482;-57
2023/12/28 11:04:57;;;;;;;5.60;2.00;;;;;;;;;;5074579;28;20068;-57
2023/12/28 11:07:24;;;;;;;5.13;1.80;;;;;;;;;;5075057;28;20056;-57
2023/12/28 11:09:52;;;;;;;6.85;1.95;;;;;;;;;;5074659;28;20086;-57
2023/12/28 11:12:19;;;;;;;6.85;1.85;;;;;;;;;;5075186;28;20048;-56
2023/12/28 11:14:48;;;;;;;5.10;1.83;;;;;;;;;;5075068;28;20059;-57
2023/12/28 11:17:16;;;;;;;6.97;2.10;;;;;;;;;;5074532;28;20063;-57
2023/12/28 11:19:44;;;;;;;4.50;1.40;;;;;;;;;;5075057;28;20064;-57
2023/12/28 11:22:11;;;;;;;6.30;1.90;;;;;;;;;;5074639;28;21034;-57
2023/12/28 11:24:38;;;;;;;7.75;1.98;;;;;;;;;;5074697;28;20482;-57
2023/12/28 11:27:05;;;;;;;6.25;1.90;;;;;;;;;;5074949;28;20056;-57
2023/12/28 11:29:32;;;;;;;3.83;1.83;;;;;;;;;;5074411;28;20064;-57
2023/12/28 11:32:00;;;;;;;7.22;2.03;;;;;;;;;;5074568;28;20056;-58
2023/12/28 11:34:29;;;;;;;4.57;1.83;;;;;;;;;;5074247;28;20065;-57
2023/12/28 11:36:56;;;;;;;6.18;1.95;;;;;;;;;;5074443;28;20064;-58
2023/12/28 11:39:29;;;;;;;8.35;2.50;;;;;;;;;;5074426;28;20053;-57
2023/12/28 11:42:00;;;;;;;6.70;2.15;;;;;;;;;;5074091;28;20048;-57
2023/12/28 11:44:27;;;;;;;5.32;2.00;;;;;;;;;;5074200;28;20052;-57
2023/12/28 11:46:56;;;;;;;5.15;1.77;;;;;;;;;;5074355;28;20064;-58
2023/12/28 11:49:26;;;;;;;5.00;1.92;;;;;;;;;;5074480;28;20053;-58
2023/12/28 11:51:57;;;;;;;6.07;2.00;;;;;;;;;;5074475;28;20055;-58
2023/12/28 11:54:24;;;;;;;4.57;1.52;;;;;;;;;;5074065;28;20052;-56
2023/12/28 11:56:51;;;;;;;5.90;1.67;;;;;;;;;;5073834;28;20059;-56
2023/12/28 11:59:19;;;;;;;4.72;1.90;;;;;;;;;;5073362;28;20048;-57
2023/12/28 12:01:50;;;;;;;5.90;1.83;;;;;;;;;;5073840;28;20508;-56
2023/12/28 12:04:16;;;;;;;5.38;1.63;;;;;;;;;;5073569;28;20049;-56
2023/12/28 12:06:43;;;;;;;7.10;2.22;;;;;;;;;;5073899;28;20504;-56
2023/12/28 12:09:13;;;;;;;6.57;2.15;;;;;;;;;;5073705;28;20071;-55
2023/12/28 12:11:40;;;;;;;5.13;1.92;;;;;;;;;;5073730;28;20167;-56
2023/12/28 12:14:08;;;;;;;3.70;1.63;;;;;;;;;;5073706;28;20048;-56
2023/12/28 12:16:35;;;;;;;6.28;1.92;;;;;;;;;;5073703;28;20048;-56
2023/12/28 12:19:02;;;;;;;5.00;1.73;;;;;;;;;;5073369;28;20052;-56
2023/12/28 12:21:29;;;;;;;6.53;2.03;;;;;;;;;;5073295;28;20052;-56
2023/12/28 12:23:56;;;;;;;5.18;1.73;;;;;;;;;;5073392;28;20045;-56
2023/12/28 12:26:26;;;;;;;6.07;1.92;;;;;;;;;;5073442;28;20059;-56
2023/12/28 12:28:52;;;;;;;4.40;1.75;;;;;;;;;;5072992;28;20366;-56
2023/12/28 12:31:20;;;;;;;5.40;1.75;;;;;;;;;;5073446;28;20075;-57
2023/12/28 12:33:47;;;;;;;4.32;1.65;;;;;;;;;;5073129;28;20057;-57
2023/12/28 12:36:14;;;;;;;5.13;1.90;;;;;;;;;;5073527;28;20055;-57
2023/12/28 12:38:41;;;;;;;5.93;1.80;;;;;;;;;;5073310;28;20064;-57
2023/12/28 12:41:08;;;;;;;4.57;1.83;;;;;;;;;;5073276;28;20052;-57
2023/12/28 12:43:36;;;;;;;5.70;2.08;;;;;;;;;;5072923;28;20064;-57
2023/12/28 12:46:03;;;;;;;5.68;2.38;;;;;;;;;;5072777;28;20060;-57
2023/12/28 12:48:30;;;;;;;6.05;1.77;;;;;;;;;;5072642;28;20063;-56
2023/12/28 12:50:57;;;;;;;6.13;1.80;;;;;;;;;;5073240;28;20056;-57
2023/12/28 12:53:23;;;;;;;5.53;2.10;;;;;;;;;;5072351;28;20079;-57
2023/12/28 12:55:55;;;;;;;5.05;1.80;;;;;;;;;;5072556;28;20053;-56
2023/12/28 12:58:22;;;;;;;4.97;1.55;;;;;;;;;;5072899;28;20056;-56
2023/12/28 13:00:50;;;;;;;5.85;1.77;;;;;;;;;;5072651;28;20052;-56
2023/12/28 13:03:17;;;;;;;6.43;1.90;;;;;;;;;;5072865;28;20041;-56
2023/12/28 13:05:44;;;;;;;5.93;1.70;;;;;;;;;;5072420;28;20060;-56
2023/12/28 13:08:11;;;;;;;5.40;2.00;;;;;;;;;;5072543;28;20063;-56
2023/12/28 13:10:37;;;;;;;5.10;1.70;;;;;;;;;;5072765;28;20371;-56
2023/12/28 13:13:07;;;;;;;6.75;1.75;;;;;;;;;;5072360;28;20049;-56
2023/12/28 13:15:34;;;;;;;6.03;1.83;;;;;;;;;;5072276;28;20048;-57
2023/12/28 13:18:02;;;;;;;6.00;1.80;;;;;;;;;;5072711;28;20057;-56
2023/12/28 13:20:29;;;;;;;5.25;1.90;;;;;;;;;;5072985;28;20056;-57
2023/12/28 13:22:56;;;;;;;8.43;1.95;;;;;;;;;;5072641;28;20071;-57
2023/12/28 13:25:23;;;;;;;4.05;1.48;;;;;;;;;;5073011;28;20374;-57
2023/12/28 13:27:50;;;;;;;4.93;1.75;;;;;;;;;;5072178;28;20048;-56
2023/12/28 13:30:17;;;;;;;6.30;2.10;;;;;;;;;;5072512;28;20052;-57
2023/12/28 13:32:44;;;;;;;4.20;1.52;;;;;;;;;;5072136;28;20489;-56
2023/12/28 13:35:12;;;;;;;5.85;2.17;;;;;;;;;;5072481;28;20056;-57
2023/12/28 13:37:39;;;;;;;4.90;1.95;;;;;;;;;;5072397;28;20052;-57
2023/12/28 13:40:06;;;;;;;4.78;1.63;;;;;;;;;;5072590;28;20481;-56
2023/12/28 13:42:33;;;;;;;6.15;1.85;;;;;;;;;;5072557;28;20517;-56
2023/12/28 13:45:00;;;;;;;7.32;2.40;;;;;;;;;;5072374;28;20055;-57
2023/12/28 13:47:27;;;;;;;6.05;1.90;;;;;;;;;;5072377;28;20053;-57
2023/12/28 13:49:54;;;;;;;5.57;2.15;;;;;;;;;;5072573;28;20098;-57
2023/12/28 13:52:22;;;;;;;6.15;1.95;;;;;;;;;;5072510;28;20052;-56
2023/12/28 13:54:49;;;;;;;8.32;2.03;;;;;;;;;;5072235;28;20068;-57
2023/12/28 13:57:16;;;;;;;5.18;2.10;;;;;;;;;;5072156;28;20059;-57
2023/12/28 13:59:43;;;;;;;4.55;1.83;;;;;;;;;;5072229;28;20131;-57
2023/12/28 14:02:10;;;;;;;4.28;1.63;;;;;;;;;;5072372;28;20052;-56
2023/12/28 14:04:36;;;;;;;5.90;1.95;;;;;;;;;;5071759;28;20413;-57
2023/12/28 14:07:04;;;;;;;4.88;1.90;;;;;;;;;;5071777;28;20052;-57
2023/12/28 14:09:32;;;;;;;6.40;2.05;;;;;;;;;;5072539;28;20056;-55
2023/12/28 14:11:59;;;;;;;6.00;1.83;;;;;;;;;;5072170;28;20063;-56
2023/12/28 14:14:26;;;;;;;4.40;1.73;;;;;;;;;;5072162;28;20048;-56
2023/12/28 14:16:54;;;;;;;5.43;2.30;;;;;;;;;;5071953;28;20438;-56
2023/12/28 14:19:21;;;;;;;5.15;2.10;;;;;;;;;;5071830;28;20053;-56
2023/12/28 14:21:48;;;;;;;5.65;2.88;;;;;;;;;;5074099;28;20052;-56
2023/12/28 14:24:15;;;;;;;8.02;2.08;;;;;;;;;;5075504;28;20064;-56
2023/12/28 14:26:45;;;;;;;7.25;1.95;;;;;;;;;;5075868;28;20063;-56
2023/12/28 14:29:12;;;;;;;4.93;1.70;;;;;;;;;;5076044;28;20076;-56
2023/12/28 14:31:39;;;;;;;4.65;1.77;;;;;;;;;;5075404;28;20056;-56
2023/12/28 14:34:07;;;;;;;5.43;1.75;;;;;;;;;;5075513;28;20049;-56
2023/12/28 14:36:35;;;;;;;5.50;1.65;;;;;;;;;;5075425;28;20406;-56
2023/12/28 14:39:04;;;;;;;4.57;1.98;;;;;;;;;;5075605;28;20059;-56
2023/12/28 14:41:31;;;;;;;6.40;1.92;;;;;;;;;;5075583;28;20409;-57
2023/12/28 14:43:59;;;;;;;7.57;1.92;;;;;;;;;;5075119;28;20045;-56